Time;durP1;ratioP1;P1;durP2;ratioP2;P2;SDS_P1;SDS_P2;PMS_P1;PMS_P2;Temp;Humidity;BMP_temperature;BMP_pressure;BME280_temperature;BME280_humidity;BME280_pressure;Samples;Min_cycle;Max_cycle;Signal;HPM_P1;HPM_P2
2022/11/20 00:00:23;;;;;;;17.27;5.43;;;;;;;;;;5069008;28;20190;-88
2022/11/20 00:02:49;;;;;;;7.35;4.72;;;;;;;;;;5061629;28;20048;-87
2022/11/20 00:05:14;;;;;;;17.50;5.95;;;;;;;;;;5071149;28;20025;-88
2022/11/20 00:07:39;;;;;;;19.23;5.60;;;;;;;;;;5062422;28;20079;-87
2022/11/20 00:10:05;;;;;;;8.90;5.70;;;;;;;;;;5055363;28;20048;-88
2022/11/20 00:12:31;;;;;;;28.27;5.13;;;;;;;;;;5061217;28;20071;-88
2022/11/20 00:14:56;;;;;;;19.45;5.90;;;;;;;;;;5074739;28;20402;-87
2022/11/20 00:17:21;;;;;;;9.02;5.25;;;;;;;;;;5062171;28;20478;-86
2022/11/20 00:19:47;;;;;;;23.17;6.20;;;;;;;;;;5072296;28;20028;-88
2022/11/20 00:22:12;;;;;;;15.82;5.82;;;;;;;;;;5074926;28;20433;-88
2022/11/20 00:24:37;;;;;;;9.85;5.80;;;;;;;;;;5075602;28;20493;-89
2022/11/20 00:27:03;;;;;;;13.00;5.63;;;;;;;;;;5069262;28;20107;-87
2022/11/20 00:29:28;;;;;;;22.50;6.05;;;;;;;;;;5074063;28;20028;-88
2022/11/20 00:31:54;;;;;;;8.43;5.30;;;;;;;;;;5057187;28;20044;-88
2022/11/20 00:34:19;;;;;;;13.02;6.35;;;;;;;;;;5056109;28;20035;-89
2022/11/20 00:36:44;;;;;;;14.10;5.93;;;;;;;;;;5056561;28;20025;-87
2022/11/20 00:39:10;;;;;;;18.48;6.00;;;;;;;;;;5056465;28;20120;-88
2022/11/20 00:41:35;;;;;;;10.65;5.97;;;;;;;;;;5070710;28;20084;-86
2022/11/20 00:44:01;;;;;;;10.18;5.88;;;;;;;;;;5076933;28;20123;-89
2022/11/20 00:46:27;;;;;;;11.02;5.70;;;;;;;;;;5083833;28;20032;-88
2022/11/20 00:48:53;;;;;;;11.73;5.97;;;;;;;;;;5059434;28;20548;-88
2022/11/20 00:51:21;;;;;;;41.95;6.13;;;;;;;;;;5069097;28;20033;-87
2022/11/20 00:53:47;;;;;;;12.27;6.18;;;;;;;;;;5055437;28;20552;-88
2022/11/20 00:56:15;;;;;;;26.50;6.40;;;;;;;;;;5053886;28;20029;-88
2022/11/20 00:58:42;;;;;;;18.92;6.30;;;;;;;;;;5056968;28;20017;-88
2022/11/20 01:01:13;;;;;;;10.98;5.85;;;;;;;;;;5049261;28;20040;-87
2022/11/20 01:03:41;;;;;;;10.85;5.57;;;;;;;;;;5044004;28;20028;-88
2022/11/20 01:06:15;;;;;;;13.63;5.95;;;;;;;;;;5071695;28;20039;-85
2022/11/20 01:08:41;;;;;;;11.60;6.32;;;;;;;;;;5059615;28;20030;-87
2022/11/20 01:11:09;;;;;;;18.10;5.78;;;;;;;;;;5073596;28;20036;-88
2022/11/20 01:13:38;;;;;;;13.10;6.35;;;;;;;;;;5072800;28;20033;-87
2022/11/20 01:16:28;;;;;;;14.68;5.47;;;;;;;;;;5058841;28;20025;-88
2022/11/20 01:18:56;;;;;;;20.08;5.40;;;;;;;;;;5054280;28;20063;-89
2022/11/20 01:21:25;;;;;;;30.52;5.35;;;;;;;;;;5052741;28;20029;-87
2022/11/20 01:23:51;;;;;;;38.92;6.35;;;;;;;;;;5052927;28;20032;-88
2022/11/20 01:26:22;;;;;;;10.57;4.93;;;;;;;;;;5055290;28;20041;-88
2022/11/20 01:28:48;;;;;;;16.88;5.40;;;;;;;;;;5081576;28;20029;-85
2022/11/20 01:31:15;;;;;;;9.30;5.20;;;;;;;;;;5076520;28;20080;-87
2022/11/20 01:33:41;;;;;;;10.95;5.43;;;;;;;;;;5063784;28;20029;-88
2022/11/20 01:36:07;;;;;;;11.20;6.07;;;;;;;;;;5053631;28;20031;-88
2022/11/20 01:38:33;;;;;;;8.70;4.88;;;;;;;;;;5058311;28;20029;-88
2022/11/20 01:40:58;;;;;;;11.50;6.00;;;;;;;;;;5051674;28;20057;-88
2022/11/20 01:43:25;;;;;;;10.50;5.60;;;;;;;;;;5053845;28;20078;-90
2022/11/20 01:46:15;;;;;;;10.02;6.13;;;;;;;;;;5054791;28;20039;-86
2022/11/20 01:48:56;;;;;;;8.70;5.18;;;;;;;;;;5050857;28;20047;-86
2022/11/20 01:51:37;;;;;;;11.68;4.90;;;;;;;;;;5047816;28;20479;-88
2022/11/20 01:54:07;;;;;;;6.75;4.82;;;;;;;;;;5051160;28;20036;-88
2022/11/20 01:56:38;;;;;;;8.18;4.53;;;;;;;;;;5054213;28;20036;-89
2022/11/20 01:59:06;;;;;;;9.87;5.67;;;;;;;;;;5060546;28;20483;-87
2022/11/20 02:01:33;;;;;;;7.72;4.97;;;;;;;;;;5051262;28;20025;-88
2022/11/20 02:03:59;;;;;;;10.00;5.28;;;;;;;;;;5061195;28;20490;-88
2022/11/20 02:06:32;;;;;;;10.48;5.32;;;;;;;;;;5052218;28;20067;-88
2022/11/20 02:08:58;;;;;;;8.15;5.40;;;;;;;;;;5053762;28;20024;-88
2022/11/20 02:11:23;;;;;;;13.27;4.97;;;;;;;;;;5044409;28;20025;-88
2022/11/20 02:13:49;;;;;;;8.48;5.25;;;;;;;;;;5052674;28;20394;-88
2022/11/20 02:16:20;;;;;;;8.43;4.90;;;;;;;;;;5053290;28;20017;-87
2022/11/20 02:18:45;;;;;;;9.63;5.57;;;;;;;;;;5050865;28;20105;-88
2022/11/20 02:21:38;;;;;;;8.98;4.93;;;;;;;;;;5047002;28;20112;-89
2022/11/20 02:24:18;;;;;;;11.20;4.68;;;;;;;;;;5022550;28;20114;-87
2022/11/20 02:27:00;;;;;;;10.95;5.35;;;;;;;;;;5064326;28;20050;-88
2022/11/20 02:29:40;;;;;;;10.70;6.20;;;;;;;;;;5063178;28;20125;-87
2022/11/20 02:32:06;;;;;;;11.85;5.75;;;;;;;;;;5050903;28;20048;-87
2022/11/20 02:34:32;;;;;;;7.97;4.40;;;;;;;;;;5085127;28;20082;-87
2022/11/20 02:36:59;;;;;;;13.70;4.70;;;;;;;;;;5055960;28;20036;-86
2022/11/20 02:39:27;;;;;;;8.60;4.15;;;;;;;;;;5061202;28;20025;-88
2022/11/20 02:41:56;;;;;;;5.97;4.00;;;;;;;;;;5049033;28;20033;-89
2022/11/20 02:44:22;;;;;;;8.93;4.03;;;;;;;;;;5062310;28;20021;-86
2022/11/20 02:46:47;;;;;;;7.15;3.85;;;;;;;;;;5049418;28;20398;-87
2022/11/20 02:49:12;;;;;;;7.05;3.50;;;;;;;;;;5055305;28;20024;-86
2022/11/20 02:51:38;;;;;;;6.43;2.97;;;;;;;;;;5055748;28;20024;-85
2022/11/20 02:54:04;;;;;;;7.15;4.00;;;;;;;;;;5065562;28;20025;-85
2022/11/20 02:56:30;;;;;;;6.30;3.55;;;;;;;;;;5070891;28;20029;-87
2022/11/20 02:58:55;;;;;;;5.50;3.10;;;;;;;;;;5049746;28;20021;-88
2022/11/20 03:01:21;;;;;;;4.53;3.38;;;;;;;;;;5052691;28;20033;-86
2022/11/20 03:03:48;;;;;;;8.43;2.78;;;;;;;;;;5054185;28;20017;-86
2022/11/20 03:06:14;;;;;;;3.70;2.40;;;;;;;;;;5053083;28;20021;-87
2022/11/20 03:08:39;;;;;;;7.00;3.08;;;;;;;;;;5055591;28;20028;-86
2022/11/20 03:11:07;;;;;;;5.97;2.85;;;;;;;;;;5054398;28;20036;-85
2022/11/20 03:13:33;;;;;;;6.15;2.47;;;;;;;;;;5051977;28;20526;-87
2022/11/20 03:16:04;;;;;;;3.97;2.30;;;;;;;;;;5054456;28;20057;-89
2022/11/20 03:18:29;;;;;;;5.82;2.00;;;;;;;;;;5055800;28;20044;-86
2022/11/20 03:20:58;;;;;;;2.53;2.33;;;;;;;;;;5053197;28;20036;-86
2022/11/20 03:23:23;;;;;;;4.00;2.78;;;;;;;;;;5053046;28;20398;-86
2022/11/20 03:25:49;;;;;;;4.68;2.58;;;;;;;;;;5054701;28;20574;-88
2022/11/20 03:28:14;;;;;;;2.95;2.25;;;;;;;;;;5055258;28;20432;-86
2022/11/20 03:30:39;;;;;;;5.28;2.35;;;;;;;;;;5053864;28;20060;-86
2022/11/20 03:33:05;;;;;;;4.22;2.40;;;;;;;;;;5055020;28;20112;-88
2022/11/20 03:35:30;;;;;;;3.20;2.03;;;;;;;;;;5054812;28;20109;-87
2022/11/20 03:37:57;;;;;;;7.82;2.40;;;;;;;;;;5054425;28;20036;-86
2022/11/20 03:40:22;;;;;;;2.25;2.00;;;;;;;;;;5052513;28;20116;-86
2022/11/20 03:42:48;;;;;;;3.28;1.83;;;;;;;;;;5064898;28;20048;-87
2022/11/20 03:45:15;;;;;;;5.85;2.30;;;;;;;;;;5071449;28;20029;-87
2022/11/20 03:47:41;;;;;;;6.13;1.80;;;;;;;;;;5054717;28;20086;-87
2022/11/20 03:50:07;;;;;;;2.30;2.10;;;;;;;;;;5048575;28;20013;-87
2022/11/20 03:52:32;;;;;;;6.10;1.60;;;;;;;;;;5043210;28;20049;-88
2022/11/20 03:54:57;;;;;;;4.70;2.45;;;;;;;;;;5054046;28;20534;-86
2022/11/20 03:57:23;;;;;;;5.63;2.63;;;;;;;;;;5048795;28;20025;-87
2022/11/20 03:59:48;;;;;;;5.38;2.03;;;;;;;;;;5068192;28;20091;-88
2022/11/20 04:02:13;;;;;;;1.70;1.60;;;;;;;;;;5069629;28;20379;-86
2022/11/20 04:04:39;;;;;;;3.65;2.50;;;;;;;;;;5053651;28;20029;-85
2022/11/20 04:07:04;;;;;;;4.07;2.20;;;;;;;;;;5066441;28;20028;-87
2022/11/20 04:09:29;;;;;;;4.93;2.47;;;;;;;;;;5062963;28;20036;-88
2022/11/20 04:11:55;;;;;;;2.55;1.83;;;;;;;;;;5052789;28;20021;-88
2022/11/20 04:14:20;;;;;;;1.77;1.67;;;;;;;;;;5045661;28;20069;-84
2022/11/20 04:16:45;;;;;;;3.08;1.85;;;;;;;;;;5037382;28;20033;-88
2022/11/20 04:19:14;;;;;;;4.93;2.10;;;;;;;;;;5048024;28;20093;-84
2022/11/20 04:21:39;;;;;;;2.60;1.98;;;;;;;;;;5063299;28;20005;-83
2022/11/20 04:24:06;;;;;;;4.90;2.40;;;;;;;;;;5075307;28;20036;-82
2022/11/20 04:26:31;;;;;;;2.67;2.15;;;;;;;;;;5077953;28;20037;-84
2022/11/20 04:28:58;;;;;;;2.63;1.80;;;;;;;;;;5075866;28;20028;-83
2022/11/20 04:31:28;;;;;;;3.78;2.40;;;;;;;;;;5085739;28;20059;-84
2022/11/20 04:33:53;;;;;;;4.70;1.92;;;;;;;;;;5061410;28;20112;-86
2022/11/20 04:36:22;;;;;;;2.20;1.98;;;;;;;;;;5053778;28;20056;-89
2022/11/20 04:38:59;;;;;;;4.03;1.88;;;;;;;;;;5056437;28;20033;-86
2022/11/20 04:41:27;;;;;;;5.45;2.25;;;;;;;;;;5054164;28;20021;-88
2022/11/20 04:43:58;;;;;;;2.35;1.98;;;;;;;;;;5068723;28;20020;-86
2022/11/20 04:46:25;;;;;;;3.15;2.13;;;;;;;;;;5058374;28;20025;-86
2022/11/20 04:48:50;;;;;;;2.95;2.25;;;;;;;;;;5063627;28;20077;-83
2022/11/20 04:51:16;;;;;;;3.83;1.80;;;;;;;;;;5069112;28;20033;-83
2022/11/20 04:53:41;;;;;;;2.17;1.88;;;;;;;;;;5076250;28;20025;-88
2022/11/20 04:56:09;;;;;;;1.65;1.55;;;;;;;;;;5056481;28;20033;-87
2022/11/20 04:58:35;;;;;;;3.50;2.15;;;;;;;;;;5055522;28;20091;-86
2022/11/20 05:01:04;;;;;;;1.75;1.65;;;;;;;;;;5071448;28;20024;-86
2022/11/20 05:03:30;;;;;;;10.25;2.13;;;;;;;;;;5059625;28;20017;-87
2022/11/20 05:05:56;;;;;;;1.80;1.65;;;;;;;;;;5055393;28;20032;-86
2022/11/20 05:08:21;;;;;;;3.00;1.80;;;;;;;;;;5071202;28;20009;-81
2022/11/20 05:10:47;;;;;;;4.00;1.80;;;;;;;;;;5057644;28;20033;-88
2022/11/20 05:13:12;;;;;;;2.17;1.90;;;;;;;;;;5056715;28;20104;-87
2022/11/20 05:15:37;;;;;;;2.20;1.70;;;;;;;;;;5055490;28;20394;-86
2022/11/20 05:18:03;;;;;;;2.58;1.67;;;;;;;;;;5058682;28;20016;-87
2022/11/20 05:20:28;;;;;;;2.15;1.70;;;;;;;;;;5048424;28;20049;-84
2022/11/20 05:22:57;;;;;;;3.60;1.73;;;;;;;;;;5068828;28;20108;-87
2022/11/20 05:25:22;;;;;;;2.58;2.15;;;;;;;;;;5055098;28;20060;-87
2022/11/20 05:27:47;;;;;;;5.88;1.70;;;;;;;;;;5054714;28;20030;-88
2022/11/20 05:30:13;;;;;;;1.75;1.60;;;;;;;;;;5058252;28;20035;-86
2022/11/20 05:32:38;;;;;;;1.67;1.58;;;;;;;;;;5059331;28;20025;-87
2022/11/20 05:35:04;;;;;;;3.33;1.90;;;;;;;;;;5055593;28;20024;-88
2022/11/20 05:37:29;;;;;;;2.15;1.77;;;;;;;;;;5056798;28;20040;-87
2022/11/20 05:39:55;;;;;;;4.00;1.85;;;;;;;;;;5056044;28;20115;-83
2022/11/20 05:42:32;;;;;;;2.58;2.38;;;;;;;;;;5052078;28;20032;-86
2022/11/20 05:44:58;;;;;;;1.60;1.50;;;;;;;;;;5069478;28;20029;-86
2022/11/20 05:47:24;;;;;;;2.30;1.80;;;;;;;;;;5055630;28;20093;-86
2022/11/20 05:49:50;;;;;;;1.73;1.55;;;;;;;;;;5055790;28;20064;-87
2022/11/20 05:52:15;;;;;;;2.90;1.60;;;;;;;;;;5051409;28;20017;-87
2022/11/20 05:54:40;;;;;;;3.28;1.85;;;;;;;;;;5061649;28;20056;-87
2022/11/20 05:57:06;;;;;;;2.17;1.90;;;;;;;;;;5060067;28;20021;-85
2022/11/20 05:59:31;;;;;;;3.47;1.52;;;;;;;;;;5056456;28;20032;-87
2022/11/20 06:01:56;;;;;;;1.60;1.50;;;;;;;;;;5044419;28;20472;-87
2022/11/20 06:04:22;;;;;;;3.85;1.80;;;;;;;;;;5054845;28;20021;-87
2022/11/20 06:06:47;;;;;;;4.55;2.00;;;;;;;;;;5055887;28;20044;-87
2022/11/20 06:09:12;;;;;;;1.90;1.75;;;;;;;;;;5055222;28;20048;-87
2022/11/20 06:11:38;;;;;;;4.88;2.10;;;;;;;;;;5061006;28;20044;-86
2022/11/20 06:14:03;;;;;;;4.28;1.90;;;;;;;;;;5067980;28;20378;-86
2022/11/20 06:16:29;;;;;;;2.28;2.00;;;;;;;;;;5055346;28;20020;-84
2022/11/20 06:18:54;;;;;;;2.50;1.90;;;;;;;;;;5053278;28;20025;-87
2022/11/20 06:21:21;;;;;;;2.20;1.70;;;;;;;;;;5053065;28;20505;-86
2022/11/20 06:23:47;;;;;;;3.63;2.00;;;;;;;;;;5056193;28;20056;-88
2022/11/20 06:26:20;;;;;;;4.13;2.13;;;;;;;;;;5045954;28;20120;-87
2022/11/20 06:28:46;;;;;;;1.42;1.20;;;;;;;;;;5038621;28;20037;-85
2022/11/20 06:31:14;;;;;;;2.10;1.92;;;;;;;;;;5056115;28;20055;-89
2022/11/20 06:33:39;;;;;;;2.45;2.00;;;;;;;;;;5079667;28;20029;-82
2022/11/20 06:36:05;;;;;;;2.25;2.05;;;;;;;;;;5075091;28;20035;-84
2022/11/20 06:38:31;;;;;;;1.63;1.38;;;;;;;;;;5076362;28;20063;-83
2022/11/20 06:40:56;;;;;;;1.83;1.52;;;;;;;;;;5076199;28;20044;-83
2022/11/20 06:43:22;;;;;;;2.60;1.73;;;;;;;;;;5074111;28;20008;-83
2022/11/20 06:45:55;;;;;;;3.17;2.35;;;;;;;;;;5063486;28;20028;-83
2022/11/20 06:48:22;;;;;;;2.05;1.50;;;;;;;;;;5057367;28;20036;-88
2022/11/20 06:50:47;;;;;;;2.17;1.50;;;;;;;;;;5053828;28;20036;-86
2022/11/20 06:53:13;;;;;;;2.25;1.63;;;;;;;;;;5050180;28;20033;-86
2022/11/20 06:55:46;;;;;;;2.17;1.60;;;;;;;;;;5060227;28;20029;-87
2022/11/20 06:58:12;;;;;;;1.45;1.35;;;;;;;;;;5041811;28;20036;-87
2022/11/20 07:00:37;;;;;;;1.50;1.40;;;;;;;;;;5052755;28;20024;-88
2022/11/20 07:03:04;;;;;;;1.20;1.10;;;;;;;;;;5059713;28;20029;-84
2022/11/20 07:05:29;;;;;;;2.40;1.60;;;;;;;;;;5053942;28;20024;-88
2022/11/20 07:07:56;;;;;;;1.20;1.17;;;;;;;;;;5054982;28;20039;-89
2022/11/20 07:10:21;;;;;;;1.25;1.20;;;;;;;;;;5049385;28;20025;-90
2022/11/20 07:12:51;;;;;;;2.22;1.17;;;;;;;;;;5049057;28;20029;-86
2022/11/20 07:15:20;;;;;;;2.40;1.55;;;;;;;;;;5052540;28;20028;-86
2022/11/20 07:17:46;;;;;;;1.38;1.27;;;;;;;;;;5054252;28;20091;-85
2022/11/20 07:20:12;;;;;;;2.10;1.60;;;;;;;;;;5054137;28;20652;-87
2022/11/20 07:22:38;;;;;;;1.50;1.40;;;;;;;;;;5054259;28;20055;-88
2022/11/20 07:25:04;;;;;;;1.20;1.10;;;;;;;;;;5053405;28;20029;-87
2022/11/20 07:27:30;;;;;;;1.10;1.02;;;;;;;;;;5060823;28;20103;-88
2022/11/20 07:29:55;;;;;;;2.25;1.17;;;;;;;;;;5052850;28;20099;-87
2022/11/20 07:32:22;;;;;;;2.05;1.27;;;;;;;;;;5063703;28;20081;-86
2022/11/20 07:34:47;;;;;;;1.40;1.13;;;;;;;;;;5054555;28;20090;-88
2022/11/20 07:37:13;;;;;;;1.13;1.02;;;;;;;;;;5055748;28;20088;-88
2022/11/20 07:39:39;;;;;;;2.45;1.00;;;;;;;;;;5056774;28;20028;-85
2022/11/20 07:42:06;;;;;;;1.23;1.13;;;;;;;;;;5055690;28;20009;-82
2022/11/20 07:44:31;;;;;;;1.40;1.30;;;;;;;;;;5063284;28;20102;-90
2022/11/20 07:46:56;;;;;;;4.78;1.27;;;;;;;;;;5056339;28;20032;-87
2022/11/20 07:49:22;;;;;;;1.95;1.20;;;;;;;;;;5055404;28;20025;-85
2022/11/20 07:51:51;;;;;;;1.65;1.33;;;;;;;;;;5060819;28;20028;-82
2022/11/20 07:54:16;;;;;;;1.15;1.05;;;;;;;;;;5076524;28;20008;-85
2022/11/20 07:56:41;;;;;;;2.03;1.50;;;;;;;;;;5074524;28;20032;-87
2022/11/20 07:59:07;;;;;;;1.40;1.30;;;;;;;;;;5054204;28;20021;-86
2022/11/20 08:01:32;;;;;;;1.65;1.25;;;;;;;;;;5051601;28;20097;-89
2022/11/20 08:03:57;;;;;;;2.53;1.20;;;;;;;;;;5057322;28;20079;-87
2022/11/20 08:06:24;;;;;;;3.40;1.30;;;;;;;;;;5053400;28;20033;-85
2022/11/20 08:08:50;;;;;;;2.13;1.40;;;;;;;;;;5054208;28;20063;-86
2022/11/20 08:14:14;;;;;;;3.92;1.33;;;;;;;;;;5053688;28;21112;-89
2022/11/20 08:16:45;;;;;;;1.23;1.13;;;;;;;;;;5050018;28;20116;-86
2022/11/20 08:19:11;;;;;;;1.50;1.40;;;;;;;;;;5055600;28;20057;-86
2022/11/20 08:21:37;;;;;;;1.48;1.13;;;;;;;;;;5053012;28;20116;-87
2022/11/20 08:24:02;;;;;;;4.20;1.30;;;;;;;;;;5055772;28;20454;-86
2022/11/20 08:26:28;;;;;;;4.13;1.58;;;;;;;;;;5056419;28;20048;-86
2022/11/20 08:28:55;;;;;;;1.92;1.20;;;;;;;;;;5056495;28;20049;-86
2022/11/20 08:31:21;;;;;;;1.85;1.08;;;;;;;;;;5056700;28;20033;-88
2022/11/20 08:33:46;;;;;;;1.40;1.00;;;;;;;;;;5057021;28;20452;-86
2022/11/20 08:36:12;;;;;;;1.27;0.98;;;;;;;;;;5057180;28;20032;-88
2022/11/20 08:38:38;;;;;;;1.13;1.02;;;;;;;;;;5055441;28;20115;-89
2022/11/20 08:43:52;;;;;;;0.60;0.60;;;;;;;;;;5063499;28;20040;-87
2022/11/20 08:46:18;;;;;;;1.20;0.77;;;;;;;;;;5071354;28;20033;-88
2022/11/20 08:48:44;;;;;;;2.40;1.50;;;;;;;;;;5056860;28;20036;-88
2022/11/20 08:51:10;;;;;;;2.75;1.00;;;;;;;;;;5051910;28;20487;-87
2022/11/20 08:53:36;;;;;;;1.92;0.90;;;;;;;;;;5053596;28;20033;-88
2022/11/20 08:56:01;;;;;;;0.65;0.65;;;;;;;;;;5056205;28;20028;-86
2022/11/20 08:58:26;;;;;;;0.77;0.77;;;;;;;;;;5055458;28;20021;-88
2022/11/20 09:00:52;;;;;;;1.65;1.15;;;;;;;;;;5053316;28;20021;-90
2022/11/20 09:03:18;;;;;;;1.10;1.00;;;;;;;;;;5051833;28;20028;-85
2022/11/20 09:05:43;;;;;;;0.80;0.80;;;;;;;;;;5055788;28;20112;-88
2022/11/20 09:08:08;;;;;;;0.60;0.60;;;;;;;;;;5065831;28;20021;-87
2022/11/20 09:10:34;;;;;;;0.50;0.50;;;;;;;;;;5061801;28;20401;-87
2022/11/20 09:13:00;;;;;;;0.63;0.63;;;;;;;;;;5061157;28;20584;-87
2022/11/20 09:15:25;;;;;;;0.60;0.60;;;;;;;;;;5059539;28;20028;-85
2022/11/20 09:18:02;;;;;;;1.58;0.60;;;;;;;;;;5060717;28;20029;-87
2022/11/20 09:20:29;;;;;;;0.70;0.70;;;;;;;;;;5065633;28;20031;-89
2022/11/20 09:22:55;;;;;;;0.47;0.47;;;;;;;;;;5053178;28;20509;-85
2022/11/20 09:25:21;;;;;;;1.02;0.63;;;;;;;;;;5046589;28;20037;-87
2022/11/20 09:27:46;;;;;;;1.80;0.68;;;;;;;;;;5059115;28;20065;-86
2022/11/20 09:30:13;;;;;;;0.50;0.50;;;;;;;;;;5055700;28;20063;-87
2022/11/20 09:32:40;;;;;;;0.80;0.80;;;;;;;;;;5055506;28;20021;-84
2022/11/20 09:35:06;;;;;;;0.60;0.60;;;;;;;;;;5057704;28;20025;-88
2022/11/20 09:37:31;;;;;;;0.80;0.60;;;;;;;;;;5058738;28;20032;-87
2022/11/20 09:39:56;;;;;;;0.60;0.60;;;;;;;;;;5061437;28;20033;-88
2022/11/20 09:42:27;;;;;;;0.50;0.50;;;;;;;;;;5064723;28;20028;-86
2022/11/20 09:45:17;;;;;;;0.70;0.70;;;;;;;;;;5065832;28;20063;-84
2022/11/20 09:47:58;;;;;;;0.47;0.47;;;;;;;;;;5055918;28;20040;-87
2022/11/20 09:50:47;;;;;;;0.73;0.60;;;;;;;;;;5073426;28;20033;-88
2022/11/20 09:53:36;;;;;;;0.75;0.75;;;;;;;;;;5056521;28;20044;-86
2022/11/20 09:56:04;;;;;;;0.50;0.50;;;;;;;;;;5010100;28;20127;-86
2022/11/20 09:58:42;;;;;;;0.60;0.60;;;;;;;;;;5059648;28;20374;-88
2022/11/20 10:01:29;;;;;;;1.00;0.60;;;;;;;;;;5051540;28;20044;-88
2022/11/20 10:04:23;;;;;;;1.30;0.98;;;;;;;;;;5054488;28;20108;-88
2022/11/20 10:07:07;;;;;;;0.55;0.55;;;;;;;;;;5053119;28;20487;-89
2022/11/20 10:09:39;;;;;;;1.02;1.02;;;;;;;;;;5056288;28;20086;-87
2022/11/20 10:12:07;;;;;;;1.17;0.90;;;;;;;;;;5045931;28;20074;-89
2022/11/20 10:14:44;;;;;;;0.60;0.60;;;;;;;;;;5055200;28;20020;-87
2022/11/20 10:17:41;;;;;;;0.73;0.73;;;;;;;;;;5063231;28;20020;-83
2022/11/20 10:20:20;;;;;;;1.00;0.88;;;;;;;;;;5050563;28;20017;-86
2022/11/20 10:23:08;;;;;;;0.95;0.85;;;;;;;;;;5043016;28;20032;-88
2022/11/20 10:25:42;;;;;;;1.48;1.20;;;;;;;;;;5036921;28;20040;-90
2022/11/20 10:28:21;;;;;;;1.00;1.00;;;;;;;;;;5064238;28;20029;-82
2022/11/20 10:30:56;;;;;;;1.60;1.13;;;;;;;;;;5087391;28;20017;-85
2022/11/20 10:33:25;;;;;;;0.90;0.90;;;;;;;;;;5060739;28;20166;-88
2022/11/20 10:36:14;;;;;;;2.38;0.95;;;;;;;;;;5061106;28;20021;-87
2022/11/20 10:39:02;;;;;;;3.78;0.90;;;;;;;;;;5042060;28;20491;-87
2022/11/20 10:41:32;;;;;;;0.70;0.70;;;;;;;;;;5027273;28;20123;-87
2022/11/20 10:44:04;;;;;;;0.88;0.88;;;;;;;;;;5052192;28;20101;-87
2022/11/20 10:46:37;;;;;;;0.70;0.70;;;;;;;;;;5068678;28;20059;-86
2022/11/20 10:49:10;;;;;;;0.80;0.80;;;;;;;;;;5054193;28;20025;-88
2022/11/20 10:51:46;;;;;;;3.25;1.30;;;;;;;;;;5057567;28;20029;-88
2022/11/20 10:54:34;;;;;;;2.85;1.33;;;;;;;;;;5065869;28;20056;-83
2022/11/20 10:57:35;;;;;;;2.33;1.10;;;;;;;;;;5068743;28;20093;-83
2022/11/20 11:00:07;;;;;;;2.03;1.45;;;;;;;;;;5049850;28;20123;-87
2022/11/20 11:02:48;;;;;;;3.25;1.20;;;;;;;;;;5066813;28;20021;-86
2022/11/20 11:05:20;;;;;;;2.28;1.20;;;;;;;;;;5056395;28;20082;-88
2022/11/20 11:07:50;;;;;;;3.40;1.20;;;;;;;;;;5071858;28;20027;-86
2022/11/20 11:10:18;;;;;;;1.42;1.20;;;;;;;;;;5069885;28;20036;-86
2022/11/20 11:12:46;;;;;;;1.05;1.05;;;;;;;;;;5072220;28;20055;-87
2022/11/20 11:15:39;;;;;;;1.38;1.27;;;;;;;;;;5062627;28;20044;-89
2022/11/20 11:18:04;;;;;;;2.58;1.45;;;;;;;;;;5053774;28;20020;-88
2022/11/20 11:20:31;;;;;;;1.10;1.02;;;;;;;;;;5053154;28;20042;-89
2022/11/20 11:22:58;;;;;;;1.17;1.10;;;;;;;;;;5055796;28;20028;-89
2022/11/20 11:25:35;;;;;;;1.00;1.00;;;;;;;;;;5053708;28;20033;-87
2022/11/20 11:28:21;;;;;;;1.15;1.05;;;;;;;;;;5057330;28;20032;-88
2022/11/20 11:30:48;;;;;;;1.60;1.15;;;;;;;;;;5060701;28;20036;-87
2022/11/20 11:33:30;;;;;;;2.65;1.30;;;;;;;;;;5053177;28;20028;-89
2022/11/20 11:36:04;;;;;;;2.08;1.38;;;;;;;;;;5066665;28;20459;-88
2022/11/20 11:38:43;;;;;;;2.40;1.60;;;;;;;;;;5051566;28;20053;-89
2022/11/20 11:41:18;;;;;;;2.13;1.50;;;;;;;;;;5051070;28;20053;-90
2022/11/20 11:46:37;;;;;;;1.30;1.20;;;;;;;;;;5051021;28;20039;-87
2022/11/20 11:49:08;;;;;;;1.40;1.30;;;;;;;;;;5045246;28;20075;-88
2022/11/20 11:51:46;;;;;;;3.28;1.42;;;;;;;;;;5046774;28;20028;-90
2022/11/20 11:54:31;;;;;;;3.05;1.55;;;;;;;;;;5052167;28;20022;-88
2022/11/20 11:57:01;;;;;;;3.05;1.33;;;;;;;;;;5056397;28;20025;-89
2022/11/20 11:59:41;;;;;;;3.38;1.70;;;;;;;;;;5052609;28;20024;-91
2022/11/20 12:02:23;;;;;;;1.08;1.08;;;;;;;;;;5057582;28;20032;-90
2022/11/20 12:05:10;;;;;;;3.60;1.40;;;;;;;;;;5058367;28;20029;-92
2022/11/20 12:07:41;;;;;;;1.50;1.08;;;;;;;;;;5077931;28;20024;-89
2022/11/20 12:10:22;;;;;;;1.02;1.02;;;;;;;;;;5074391;28;20147;-92
2022/11/20 12:13:04;;;;;;;2.38;1.00;;;;;;;;;;5072915;28;20143;-91
2022/11/20 12:15:31;;;;;;;1.27;1.17;;;;;;;;;;5060858;28;20679;-90
2022/11/20 12:17:57;;;;;;;1.08;1.00;;;;;;;;;;5071847;28;20039;-89
2022/11/20 12:20:28;;;;;;;3.85;1.30;;;;;;;;;;5056741;28;20044;-89
2022/11/20 12:23:05;;;;;;;2.77;1.20;;;;;;;;;;5054266;28;20386;-90
2022/11/20 12:25:35;;;;;;;3.25;1.13;;;;;;;;;;5054867;28;20021;-87
2022/11/20 12:28:44;;;;;;;4.22;1.67;;;;;;;;;;5064482;28;20020;-88
2022/11/20 12:31:15;;;;;;;0.50;0.50;;;;;;;;;;4946876;28;20031;-87
2022/11/20 12:33:56;;;;;;;1.23;1.00;;;;;;;;;;4930947;29;20478;-88
2022/11/20 12:36:42;;;;;;;2.17;0.70;;;;;;;;;;5006551;28;20035;-88
2022/11/20 12:39:30;;;;;;;1.20;0.77;;;;;;;;;;5042345;28;20033;-89
2022/11/20 12:45:20;;;;;;;1.00;0.90;;;;;;;;;;5038714;28;20044;-89
2022/11/20 12:48:22;;;;;;;2.22;1.13;;;;;;;;;;5055354;28;20090;-90
2022/11/20 12:51:28;;;;;;;1.50;0.63;;;;;;;;;;5069187;28;20033;-89
2022/11/20 12:53:59;;;;;;;1.98;0.80;;;;;;;;;;5044776;28;20522;-91
2022/11/20 12:56:57;;;;;;;0.77;0.60;;;;;;;;;;5040723;28;20025;-87
2022/11/20 12:59:49;;;;;;;1.30;0.80;;;;;;;;;;5047843;28;20055;-89
2022/11/20 13:02:29;;;;;;;1.85;0.60;;;;;;;;;;5044194;28;20032;-89
2022/11/20 13:05:32;;;;;;;1.00;0.90;;;;;;;;;;5047331;28;20029;-89
2022/11/20 13:07:58;;;;;;;5.10;1.33;;;;;;;;;;5043152;28;20045;-89
2022/11/20 13:10:43;;;;;;;4.55;0.77;;;;;;;;;;5046466;28;20053;-88
2022/11/20 13:13:18;;;;;;;0.70;0.70;;;;;;;;;;5045485;28;20031;-88
2022/11/20 13:15:49;;;;;;;0.57;0.57;;;;;;;;;;5046483;28;20059;-88
2022/11/20 13:18:15;;;;;;;0.63;0.63;;;;;;;;;;5054022;28;20025;-88
2022/11/20 13:20:45;;;;;;;1.98;0.85;;;;;;;;;;5053807;28;20029;-88
2022/11/20 13:23:11;;;;;;;1.42;0.80;;;;;;;;;;5049343;28;20021;-88
2022/11/20 13:25:40;;;;;;;1.95;0.95;;;;;;;;;;5047851;28;20036;-88
2022/11/20 13:28:11;;;;;;;1.10;0.63;;;;;;;;;;5048070;28;20086;-88
2022/11/20 13:30:49;;;;;;;0.83;0.80;;;;;;;;;;5050408;28;20495;-88
2022/11/20 13:33:29;;;;;;;0.75;0.73;;;;;;;;;;5050445;28;20025;-88
2022/11/20 13:36:02;;;;;;;3.20;0.60;;;;;;;;;;5056266;28;20074;-89
2022/11/20 13:38:28;;;;;;;0.75;0.55;;;;;;;;;;5070800;28;20044;-89
2022/11/20 13:40:59;;;;;;;3.38;0.60;;;;;;;;;;5061982;28;20017;-89
2022/11/20 13:43:41;;;;;;;1.23;0.60;;;;;;;;;;5066677;28;20073;-88
2022/11/20 13:46:09;;;;;;;2.25;0.77;;;;;;;;;;5071985;28;20009;-88
2022/11/20 13:48:41;;;;;;;2.45;1.00;;;;;;;;;;5071013;28;20010;-88
2022/11/20 13:51:44;;;;;;;2.03;0.50;;;;;;;;;;5074007;28;20013;-88
2022/11/20 13:54:36;;;;;;;0.90;0.80;;;;;;;;;;5066412;28;20060;-88
2022/11/20 13:57:10;;;;;;;0.75;0.63;;;;;;;;;;5058530;28;20033;-87
2022/11/20 13:59:54;;;;;;;1.40;0.88;;;;;;;;;;5045878;28;20039;-88
2022/11/20 14:02:21;;;;;;;1.08;0.70;;;;;;;;;;5079860;28;20051;-88
2022/11/20 14:04:49;;;;;;;0.60;0.60;;;;;;;;;;5059062;28;20506;-87
2022/11/20 14:07:18;;;;;;;2.05;0.90;;;;;;;;;;5072438;28;20017;-88
2022/11/20 14:10:21;;;;;;;2.58;0.80;;;;;;;;;;5073182;28;20047;-88
2022/11/20 14:12:47;;;;;;;1.05;0.80;;;;;;;;;;5067854;28;20024;-89
2022/11/20 14:15:34;;;;;;;0.90;0.85;;;;;;;;;;5058545;28;20108;-88
2022/11/20 14:17:59;;;;;;;0.57;0.57;;;;;;;;;;5056705;28;20025;-88
2022/11/20 14:20:28;;;;;;;0.77;0.77;;;;;;;;;;5058655;28;20147;-88
2022/11/20 14:22:54;;;;;;;1.40;1.00;;;;;;;;;;5061298;28;20074;-87
2022/11/20 14:25:27;;;;;;;1.67;0.95;;;;;;;;;;5071016;28;20044;-87
2022/11/20 14:28:00;;;;;;;1.15;0.90;;;;;;;;;;5078295;28;20028;-87
2022/11/20 14:30:37;;;;;;;0.70;0.70;;;;;;;;;;5070237;28;20036;-87
2022/11/20 14:33:04;;;;;;;2.72;1.02;;;;;;;;;;5066516;28;20029;-86
2022/11/20 14:35:34;;;;;;;1.48;0.82;;;;;;;;;;5049505;28;20037;-88
2022/11/20 14:38:01;;;;;;;0.82;0.82;;;;;;;;;;5050844;28;20026;-88
2022/11/20 14:40:30;;;;;;;0.60;0.60;;;;;;;;;;5052302;28;20017;-87
2022/11/20 14:42:57;;;;;;;0.77;0.63;;;;;;;;;;5069732;28;20020;-87
2022/11/20 14:45:23;;;;;;;0.70;0.70;;;;;;;;;;5067721;28;20024;-88
2022/11/20 14:47:50;;;;;;;0.98;0.98;;;;;;;;;;5092061;28;20052;-87
2022/11/20 14:50:22;;;;;;;1.98;1.00;;;;;;;;;;5054925;28;20048;-87
2022/11/20 14:52:59;;;;;;;1.00;1.00;;;;;;;;;;5078939;28;20032;-88
2022/11/20 14:55:30;;;;;;;4.15;2.45;;;;;;;;;;5052907;28;20033;-89
2022/11/20 14:57:59;;;;;;;2.78;1.80;;;;;;;;;;5041119;28;20017;-88
2022/11/20 15:00:25;;;;;;;4.20;1.15;;;;;;;;;;5050813;28;20504;-87
2022/11/20 15:02:51;;;;;;;1.08;0.90;;;;;;;;;;5046527;28;20060;-87
2022/11/20 15:05:20;;;;;;;0.65;0.55;;;;;;;;;;5061277;28;20033;-87
2022/11/20 15:07:48;;;;;;;3.33;1.27;;;;;;;;;;5046072;28;20032;-87
2022/11/20 15:10:25;;;;;;;1.20;1.10;;;;;;;;;;5084085;28;20035;-87